AUA47E LOWW-GCLP
Flight info
| Callsign | AUA47E |
|---|---|
| Flight time | N/A |
| Altitude | 38000 |
| Route | OSPEN DCT ABRUK DCT SETAL DCT DETSA DCT GEKBA DCT VAMTU DCT KOLON DCT GANGU DCT PADKO DCT DIVKO DCT NILDU DCT NENDA N975 BCN M985 PIMOS N869 GALTO UB11 PELAX UN869 MABAP DCT RUSIK |
| Aircraft | A20N/M-SDE2E3FGHIRWXY/LB1 |
Departure
| Time | 2026-05-06 09:47 |
|---|---|
| Airport | Vienna International Airport (LOWW) |
Arrival
| Time | N/A |
|---|---|
| Airport | Gran Canaria Airport (GCLP) |
| Time | Latitude | Longitude | Altitude | Speed | Heading |
|---|---|---|---|---|---|
| 2026-05-06 09:16 | 48.11936 | 16.55802 | 597 ft | 0 kts | 295° |
| 2026-05-06 09:36 | 48.11934 | 16.55808 | 597 ft | 7 kts | 295° |
| 2026-05-06 09:36 | 48.11915 | 16.55874 | 597 ft | 3 kts | 286° |
| 2026-05-06 09:36 | 48.11912 | 16.55897 | 597 ft | 2 kts | 259° |
| 2026-05-06 09:36 | 48.11917 | 16.55912 | 597 ft | 2 kts | 219° |
| 2026-05-06 09:37 | 48.11935 | 16.55928 | 596 ft | 2 kts | 206° |
| 2026-05-06 09:37 | 48.11904 | 16.55905 | 597 ft | 8 kts | 205° |
| 2026-05-06 09:37 | 48.11865 | 16.55878 | 599 ft | 3 kts | 206° |
| 2026-05-06 09:37 | 48.11849 | 16.55866 | 600 ft | 0 kts | 206° |
| 2026-05-06 09:40 | 48.11847 | 16.55864 | 600 ft | 2 kts | 206° |
| 2026-05-06 09:41 | 48.11809 | 16.55837 | 601 ft | 10 kts | 206° |
| 2026-05-06 09:41 | 48.11754 | 16.55797 | 602 ft | 9 kts | 205° |
| 2026-05-06 09:41 | 48.11680 | 16.55829 | 615 ft | 16 kts | 119° |
| 2026-05-06 09:41 | 48.11626 | 16.55997 | 612 ft | 21 kts | 116° |
| 2026-05-06 09:42 | 48.11547 | 16.56237 | 612 ft | 28 kts | 116° |
| 2026-05-06 09:42 | 48.11461 | 16.56499 | 601 ft | 26 kts | 115° |
| 2026-05-06 09:42 | 48.11386 | 16.56732 | 612 ft | 24 kts | 116° |
| 2026-05-06 09:42 | 48.11318 | 16.56943 | 612 ft | 21 kts | 115° |
| 2026-05-06 09:43 | 48.11255 | 16.57135 | 623 ft | 20 kts | 116° |
| 2026-05-06 09:43 | 48.11195 | 16.57319 | 621 ft | 20 kts | 116° |
| 2026-05-06 09:43 | 48.11140 | 16.57485 | 617 ft | 8 kts | 115° |
| 2026-05-06 09:43 | 48.11099 | 16.57529 | 610 ft | 8 kts | 176° |
| 2026-05-06 09:44 | 48.11062 | 16.57514 | 612 ft | 2 kts | 205° |
| 2026-05-06 09:44 | 48.11061 | 16.57514 | 612 ft | 0 kts | 206° |
| 2026-05-06 09:45 | 48.11017 | 16.57481 | 615 ft | 10 kts | 206° |
| 2026-05-06 09:45 | 48.10968 | 16.57423 | 612 ft | 8 kts | 251° |
| 2026-05-06 09:46 | 48.10986 | 16.57314 | 613 ft | 18 kts | 297° |
| 2026-05-06 09:46 | 48.11089 | 16.56995 | 616 ft | 59 kts | 296° |
| 2026-05-06 09:46 | 48.11360 | 16.56168 | 603 ft | 118 kts | 296° |
| 2026-05-06 09:46 | 48.11802 | 16.54813 | 593 ft | 170 kts | 296° |
| 2026-05-06 09:47 | 48.12344 | 16.53138 | 945 ft | 179 kts | 295° |
| 2026-05-06 09:47 | 48.12842 | 16.51398 | 1449 ft | 185 kts | 283° |
| 2026-05-06 09:47 | 48.12793 | 16.49540 | 1990 ft | 177 kts | 239° |
| 2026-05-06 09:47 | 48.11908 | 16.48355 | 2395 ft | 180 kts | 192° |
| 2026-05-06 09:48 | 48.10633 | 16.48012 | 2879 ft | 194 kts | 185° |
| 2026-05-06 09:48 | 48.09243 | 16.47594 | 3349 ft | 218 kts | 191° |
| 2026-05-06 09:48 | 48.07766 | 16.46821 | 3930 ft | 231 kts | 207° |
| 2026-05-06 09:48 | 48.06398 | 16.45428 | 4602 ft | 246 kts | 215° |
| 2026-05-06 09:49 | 48.05057 | 16.43772 | 5266 ft | 254 kts | 218° |
| 2026-05-06 09:49 | 48.03712 | 16.42032 | 6139 ft | 258 kts | 218° |
| 2026-05-06 09:49 | 48.02349 | 16.40258 | 6984 ft | 259 kts | 219° |
| 2026-05-06 09:49 | 48.00994 | 16.38484 | 7923 ft | 258 kts | 220° |
| 2026-05-06 09:50 | 47.99643 | 16.36710 | 8782 ft | 260 kts | 221° |
| 2026-05-06 09:50 | 47.98283 | 16.34930 | 9663 ft | 260 kts | 221° |
| 2026-05-06 09:50 | 47.96940 | 16.33145 | 10338 ft | 267 kts | 225° |
| 2026-05-06 09:50 | 47.95786 | 16.30868 | 10665 ft | 286 kts | 242° |
| 2026-05-06 09:51 | 47.94979 | 16.28041 | 10974 ft | 306 kts | 248° |
| 2026-05-06 09:51 | 47.94236 | 16.24961 | 11278 ft | 324 kts | 249° |
| 2026-05-06 09:51 | 47.93464 | 16.21711 | 11630 ft | 340 kts | 249° |
| 2026-05-06 09:51 | 47.92655 | 16.18347 | 12191 ft | 348 kts | 248° |
| 2026-05-06 09:52 | 47.91823 | 16.14920 | 12834 ft | 353 kts | 249° |
| 2026-05-06 09:52 | 47.90976 | 16.11455 | 13473 ft | 358 kts | 248° |
| 2026-05-06 09:52 | 47.90118 | 16.07958 | 14083 ft | 361 kts | 248° |
| 2026-05-06 09:52 | 47.89242 | 16.04413 | 14579 ft | 366 kts | 248° |
| 2026-05-06 09:53 | 47.88335 | 16.00844 | 15137 ft | 370 kts | 246° |
| 2026-05-06 09:53 | 47.87145 | 15.97432 | 15734 ft | 373 kts | 236° |
| 2026-05-06 09:53 | 47.85486 | 15.94428 | 16322 ft | 378 kts | 225° |
| 2026-05-06 09:53 | 47.83467 | 15.91891 | 16851 ft | 382 kts | 218° |
| 2026-05-06 09:54 | 47.81367 | 15.89521 | 17450 ft | 385 kts | 218° |
| 2026-05-06 09:54 | 47.79211 | 15.87120 | 18012 ft | 390 kts | 218° |
| 2026-05-06 09:54 | 47.77036 | 15.84688 | 18565 ft | 392 kts | 218° |
| 2026-05-06 09:54 | 47.74851 | 15.82237 | 19090 ft | 395 kts | 218° |
| 2026-05-06 09:55 | 47.72659 | 15.79775 | 19648 ft | 397 kts | 217° |
| 2026-05-06 09:55 | 47.70456 | 15.77299 | 20238 ft | 398 kts | 217° |
| 2026-05-06 09:55 | 47.68235 | 15.74803 | 20720 ft | 401 kts | 217° |
| 2026-05-06 09:55 | 47.66001 | 15.72295 | 21162 ft | 405 kts | 217° |
| 2026-05-06 09:56 | 47.63756 | 15.69775 | 21702 ft | 405 kts | 217° |
| 2026-05-06 09:56 | 47.61497 | 15.67242 | 22186 ft | 408 kts | 217° |
| 2026-05-06 09:56 | 47.59224 | 15.64694 | 22651 ft | 411 kts | 217° |
| 2026-05-06 09:56 | 47.56936 | 15.62134 | 23133 ft | 413 kts | 217° |
| 2026-05-06 09:57 | 47.54634 | 15.59561 | 23569 ft | 416 kts | 217° |
| 2026-05-06 09:57 | 47.52366 | 15.56889 | 23938 ft | 418 kts | 222° |
| 2026-05-06 09:57 | 47.50324 | 15.53817 | 24315 ft | 420 kts | 230° |
| 2026-05-06 09:57 | 47.48634 | 15.50290 | 24721 ft | 422 kts | 239° |
| 2026-05-06 09:58 | 47.47351 | 15.46373 | 25113 ft | 425 kts | 248° |
| 2026-05-06 09:58 | 47.46397 | 15.42287 | 25481 ft | 427 kts | 251° |
| 2026-05-06 09:58 | 47.45542 | 15.38078 | 25849 ft | 429 kts | 252° |
| 2026-05-06 09:58 | 47.44736 | 15.33824 | 26178 ft | 431 kts | 252° |
| 2026-05-06 09:59 | 47.43941 | 15.29550 | 26526 ft | 432 kts | 252° |
| 2026-05-06 09:59 | 47.43138 | 15.25263 | 26879 ft | 434 kts | 252° |
| 2026-05-06 09:59 | 47.42324 | 15.20989 | 27403 ft | 431 kts | 252° |
| 2026-05-06 09:59 | 47.41504 | 15.16755 | 27969 ft | 427 kts | 251° |
| 2026-05-06 10:00 | 47.40681 | 15.12557 | 28475 ft | 425 kts | 251° |
| 2026-05-06 10:00 | 47.39856 | 15.08384 | 28948 ft | 423 kts | 251° |
| 2026-05-06 10:00 | 47.39032 | 15.04230 | 29417 ft | 421 kts | 251° |
| 2026-05-06 10:00 | 47.38209 | 15.00094 | 29856 ft | 419 kts | 251° |
| 2026-05-06 10:01 | 47.37391 | 14.95987 | 30273 ft | 416 kts | 251° |
| 2026-05-06 10:01 | 47.36576 | 14.91906 | 30663 ft | 413 kts | 251° |
| 2026-05-06 10:01 | 47.35767 | 14.87865 | 31114 ft | 409 kts | 250° |
| 2026-05-06 10:01 | 47.34967 | 14.83869 | 31594 ft | 405 kts | 251° |
| 2026-05-06 10:02 | 47.34170 | 14.79905 | 32025 ft | 401 kts | 251° |
| 2026-05-06 10:02 | 47.33379 | 14.75974 | 32430 ft | 399 kts | 251° |
| 2026-05-06 10:02 | 47.32592 | 14.72068 | 32842 ft | 395 kts | 251° |
| 2026-05-06 10:02 | 47.31811 | 14.68201 | 33243 ft | 392 kts | 251° |
| 2026-05-06 10:03 | 47.31036 | 14.64367 | 33654 ft | 389 kts | 251° |
| 2026-05-06 10:03 | 47.30264 | 14.60565 | 34020 ft | 386 kts | 251° |
| 2026-05-06 10:03 | 47.29497 | 14.56789 | 34218 ft | 385 kts | 251° |
| 2026-05-06 10:03 | 47.28726 | 14.53000 | 34356 ft | 387 kts | 251° |
| 2026-05-06 10:04 | 47.27948 | 14.49189 | 34484 ft | 389 kts | 251° |
| 2026-05-06 10:04 | 47.27170 | 14.45380 | 34694 ft | 388 kts | 251° |
| 2026-05-06 10:04 | 47.26391 | 14.41562 | 34818 ft | 390 kts | 251° |
| 2026-05-06 10:04 | 47.25608 | 14.37735 | 34958 ft | 391 kts | 251° |
| 2026-05-06 10:05 | 47.24823 | 14.33915 | 35158 ft | 390 kts | 251° |
| 2026-05-06 10:05 | 47.24036 | 14.30094 | 35344 ft | 390 kts | 251° |
| 2026-05-06 10:05 | 47.22724 | 14.23744 | 35562 ft | 391 kts | 251° |
| 2026-05-06 10:06 | 47.21931 | 14.19917 | 35684 ft | 392 kts | 251° |
| 2026-05-06 10:06 | 47.21136 | 14.16089 | 35842 ft | 392 kts | 251° |
| 2026-05-06 10:06 | 47.20340 | 14.12261 | 36016 ft | 392 kts | 251° |
| 2026-05-06 10:06 | 47.19541 | 14.08429 | 36214 ft | 391 kts | 251° |
| 2026-05-06 10:07 | 47.18744 | 14.04610 | 36320 ft | 392 kts | 251° |
| 2026-05-06 10:07 | 47.17943 | 14.00775 | 36457 ft | 392 kts | 251° |
| 2026-05-06 10:07 | 47.17140 | 13.96944 | 36560 ft | 393 kts | 251° |
| 2026-05-06 10:07 | 47.16334 | 13.93105 | 36713 ft | 392 kts | 251° |
| 2026-05-06 10:08 | 47.15539 | 13.89323 | 36862 ft | 393 kts | 251° |
| 2026-05-06 10:08 | 47.14732 | 13.85490 | 36996 ft | 393 kts | 251° |
| 2026-05-06 10:08 | 47.13924 | 13.81659 | 37149 ft | 392 kts | 251° |
| 2026-05-06 10:08 | 47.13114 | 13.77827 | 37245 ft | 393 kts | 251° |
| 2026-05-06 10:09 | 47.11484 | 13.70140 | 37400 ft | 394 kts | 251° |
| 2026-05-06 10:09 | 47.10668 | 13.66302 | 37523 ft | 394 kts | 251° |
| 2026-05-06 10:09 | 47.09850 | 13.62461 | 37645 ft | 394 kts | 251° |
| 2026-05-06 10:10 | 47.08207 | 13.54774 | 37717 ft | 396 kts | 251° |
| 2026-05-06 10:10 | 47.06553 | 13.47060 | 37854 ft | 396 kts | 251° |
| 2026-05-06 10:11 | 47.04888 | 13.39320 | 37894 ft | 400 kts | 251° |
| 2026-05-06 10:11 | 47.03222 | 13.31600 | 37876 ft | 400 kts | 251° |
| 2026-05-06 10:12 | 47.01528 | 13.23789 | 37860 ft | 400 kts | 251° |
| 2026-05-06 10:12 | 46.99847 | 13.16087 | 37858 ft | 400 kts | 251° |
| 2026-05-06 10:13 | 46.98151 | 13.08332 | 37889 ft | 399 kts | 251° |
| 2026-05-06 10:13 | 46.96441 | 13.00533 | 37870 ft | 404 kts | 251° |
| 2026-05-06 10:14 | 46.94716 | 12.92696 | 37865 ft | 404 kts | 251° |
| 2026-05-06 10:14 | 46.92986 | 12.84872 | 37865 ft | 404 kts | 250° |
| 2026-05-06 10:15 | 46.91251 | 12.77045 | 37868 ft | 405 kts | 251° |
| 2026-05-06 10:15 | 46.89507 | 12.69208 | 37887 ft | 405 kts | 250° |
| 2026-05-06 10:16 | 46.87756 | 12.61375 | 37901 ft | 405 kts | 250° |
| 2026-05-06 10:16 | 46.85998 | 12.53537 | 37916 ft | 406 kts | 250° |
| 2026-05-06 10:17 | 46.84231 | 12.45690 | 37921 ft | 406 kts | 250° |
| 2026-05-06 10:17 | 46.82466 | 12.37871 | 37948 ft | 406 kts | 250° |
| 2026-05-06 10:18 | 46.80590 | 12.30170 | 37967 ft | 404 kts | 244° |
| 2026-05-06 10:18 | 46.77667 | 12.23137 | 37966 ft | 403 kts | 234° |
| 2026-05-06 10:19 | 46.74346 | 12.16604 | 37970 ft | 404 kts | 233° |
| 2026-05-06 10:19 | 46.70922 | 12.10112 | 37961 ft | 404 kts | 233° |
| 2026-05-06 10:20 | 46.67494 | 12.03612 | 37948 ft | 404 kts | 233° |
| 2026-05-06 10:20 | 46.64078 | 11.97108 | 37919 ft | 404 kts | 233° |
| 2026-05-06 10:21 | 46.60670 | 11.90614 | 37926 ft | 404 kts | 233° |
| 2026-05-06 10:21 | 46.57275 | 11.84156 | 37910 ft | 404 kts | 232° |
| 2026-05-06 10:22 | 46.53857 | 11.77673 | 37894 ft | 405 kts | 232° |
| 2026-05-06 10:22 | 46.50426 | 11.71181 | 37906 ft | 405 kts | 232° |
| 2026-05-06 10:23 | 46.46989 | 11.64695 | 37898 ft | 406 kts | 232° |
| 2026-05-06 10:23 | 46.43541 | 11.58203 | 37905 ft | 407 kts | 232° |
| 2026-05-06 10:24 | 46.40087 | 11.51712 | 37922 ft | 407 kts | 232° |
| 2026-05-06 10:24 | 46.36619 | 11.45211 | 37902 ft | 408 kts | 232° |
| 2026-05-06 10:25 | 46.33145 | 11.38714 | 37905 ft | 408 kts | 232° |
| 2026-05-06 10:25 | 46.29668 | 11.32226 | 37953 ft | 408 kts | 232° |
| 2026-05-06 10:26 | 46.26187 | 11.25747 | 37959 ft | 408 kts | 232° |
| 2026-05-06 10:26 | 46.22700 | 11.19273 | 37955 ft | 408 kts | 232° |
| 2026-05-06 10:27 | 46.19212 | 11.12812 | 37955 ft | 408 kts | 232° |
| 2026-05-06 10:27 | 46.15725 | 11.06365 | 37965 ft | 407 kts | 232° |
| 2026-05-06 10:28 | 46.12255 | 10.99968 | 37941 ft | 408 kts | 232° |
| 2026-05-06 10:28 | 46.08763 | 10.93542 | 37925 ft | 406 kts | 232° |
| 2026-05-06 10:29 | 46.05279 | 10.87144 | 37918 ft | 406 kts | 232° |
| 2026-05-06 10:29 | 46.01793 | 10.80758 | 37909 ft | 405 kts | 232° |
| 2026-05-06 10:30 | 45.98312 | 10.74398 | 37907 ft | 405 kts | 232° |
| 2026-05-06 10:30 | 45.94823 | 10.68036 | 37898 ft | 405 kts | 232° |
| 2026-05-06 10:31 | 45.91335 | 10.61692 | 37898 ft | 404 kts | 232° |
| 2026-05-06 10:31 | 45.87855 | 10.55373 | 37922 ft | 403 kts | 232° |
| 2026-05-06 10:32 | 45.84372 | 10.49065 | 37888 ft | 403 kts | 232° |
| 2026-05-06 10:32 | 45.80890 | 10.42775 | 37899 ft | 401 kts | 232° |
| 2026-05-06 10:33 | 45.77402 | 10.36488 | 37895 ft | 404 kts | 232° |
| 2026-05-06 10:33 | 45.73915 | 10.30215 | 37891 ft | 401 kts | 231° |
| 2026-05-06 10:34 | 45.70437 | 10.23973 | 37870 ft | 400 kts | 231° |
| 2026-05-06 10:34 | 45.66964 | 10.17752 | 37882 ft | 400 kts | 232° |
| 2026-05-06 10:35 | 45.63490 | 10.11544 | 37888 ft | 399 kts | 231° |
| 2026-05-06 10:35 | 45.60016 | 10.05350 | 37876 ft | 399 kts | 231° |
| 2026-05-06 10:36 | 45.56543 | 9.99171 | 37880 ft | 399 kts | 231° |
| 2026-05-06 10:36 | 45.53087 | 9.93036 | 37880 ft | 399 kts | 231° |
| 2026-05-06 10:37 | 45.49603 | 9.86865 | 37880 ft | 400 kts | 231° |
| 2026-05-06 10:37 | 45.46108 | 9.80689 | 37876 ft | 400 kts | 231° |
| 2026-05-06 10:38 | 45.42616 | 9.74530 | 37973 ft | 400 kts | 231° |
| 2026-05-06 10:38 | 45.39117 | 9.68374 | 37989 ft | 400 kts | 231° |
| 2026-05-06 10:39 | 45.35618 | 9.62229 | 37979 ft | 400 kts | 231° |
| 2026-05-06 10:39 | 45.32114 | 9.56090 | 37953 ft | 400 kts | 231° |
| 2026-05-06 10:40 | 45.28611 | 9.49965 | 37851 ft | 400 kts | 231° |
| 2026-05-06 10:40 | 45.25105 | 9.43850 | 37845 ft | 399 kts | 231° |
| 2026-05-06 10:41 | 45.21596 | 9.37742 | 37845 ft | 399 kts | 231° |
| 2026-05-06 10:41 | 45.18083 | 9.31640 | 37841 ft | 399 kts | 231° |
| 2026-05-06 10:42 | 45.14588 | 9.25583 | 37844 ft | 399 kts | 231° |
| 2026-05-06 10:42 | 45.11066 | 9.19492 | 37838 ft | 399 kts | 231° |
| 2026-05-06 10:43 | 45.07542 | 9.13410 | 37833 ft | 400 kts | 231° |
| 2026-05-06 10:44 | 45.02246 | 9.04294 | 37831 ft | 400 kts | 231° |
| 2026-05-06 10:44 | 44.98708 | 8.98222 | 37832 ft | 399 kts | 231° |
| 2026-05-06 10:45 | 44.95198 | 8.92209 | 37831 ft | 399 kts | 231° |
| 2026-05-06 10:45 | 44.91659 | 8.86161 | 37831 ft | 399 kts | 231° |
| 2026-05-06 10:46 | 44.88120 | 8.80124 | 37834 ft | 399 kts | 231° |
| 2026-05-06 10:46 | 44.84574 | 8.74089 | 37837 ft | 399 kts | 230° |
| 2026-05-06 10:47 | 44.81028 | 8.68067 | 37836 ft | 399 kts | 230° |
| 2026-05-06 10:47 | 44.77485 | 8.62063 | 37841 ft | 398 kts | 230° |
| 2026-05-06 10:48 | 44.73965 | 8.56110 | 37844 ft | 398 kts | 230° |
| 2026-05-06 10:48 | 44.70420 | 8.50127 | 37839 ft | 398 kts | 230° |
| 2026-05-06 10:49 | 44.66880 | 8.44166 | 37836 ft | 397 kts | 230° |
| 2026-05-06 10:49 | 44.63342 | 8.38220 | 37839 ft | 397 kts | 230° |
| 2026-05-06 10:50 | 44.59803 | 8.32285 | 37838 ft | 396 kts | 230° |
| 2026-05-06 10:50 | 44.56267 | 8.26367 | 37842 ft | 396 kts | 230° |
| 2026-05-06 10:51 | 44.52817 | 8.20607 | 37826 ft | 396 kts | 230° |
| 2026-05-06 10:51 | 44.49271 | 8.14696 | 37834 ft | 396 kts | 230° |
| 2026-05-06 10:52 | 44.45728 | 8.08802 | 37830 ft | 396 kts | 230° |
| 2026-05-06 10:52 | 44.42173 | 8.02903 | 37828 ft | 396 kts | 230° |
| 2026-05-06 10:53 | 44.38619 | 7.97014 | 37827 ft | 396 kts | 230° |
| 2026-05-06 10:53 | 44.35657 | 7.92116 | 37826 ft | 397 kts | 230° |
| 2026-05-06 10:54 | 44.32085 | 7.86222 | 37825 ft | 398 kts | 230° |
| 2026-05-06 10:54 | 44.27908 | 7.79378 | 37828 ft | 399 kts | 227° |
| 2026-05-06 10:55 | 44.24562 | 7.74867 | 37828 ft | 399 kts | 223° |
| 2026-05-06 10:55 | 44.20416 | 7.69687 | 37833 ft | 401 kts | 222° |
| 2026-05-06 10:56 | 44.16219 | 7.64550 | 37837 ft | 401 kts | 223° |
| 2026-05-06 10:56 | 44.12369 | 7.59014 | 37848 ft | 401 kts | 228° |
| 2026-05-06 10:57 | 44.08681 | 7.53190 | 37841 ft | 401 kts | 229° |
| 2026-05-06 10:57 | 44.05026 | 7.47319 | 37859 ft | 401 kts | 229° |
| 2026-05-06 10:58 | 44.01370 | 7.41460 | 37857 ft | 401 kts | 229° |
| 2026-05-06 10:58 | 43.97710 | 7.35625 | 37870 ft | 401 kts | 229° |
| 2026-05-06 10:59 | 43.94047 | 7.29806 | 37867 ft | 400 kts | 229° |
| 2026-05-06 10:59 | 43.90387 | 7.24006 | 37871 ft | 399 kts | 229° |
| 2026-05-06 11:00 | 43.86731 | 7.18225 | 37866 ft | 399 kts | 229° |
| 2026-05-06 11:00 | 43.83073 | 7.12450 | 37873 ft | 398 kts | 229° |
| 2026-05-06 11:01 | 43.79415 | 7.06686 | 37877 ft | 398 kts | 229° |
| 2026-05-06 11:01 | 43.75757 | 7.00934 | 37883 ft | 398 kts | 229° |
| 2026-05-06 11:02 | 43.72379 | 6.94885 | 37878 ft | 398 kts | 239° |
| 2026-05-06 11:02 | 43.69994 | 6.88001 | 37875 ft | 398 kts | 245° |
| 2026-05-06 11:03 | 43.67888 | 6.80908 | 37882 ft | 399 kts | 246° |
| 2026-05-06 11:03 | 43.65830 | 6.73801 | 37877 ft | 398 kts | 246° |
| 2026-05-06 11:04 | 43.63753 | 6.66707 | 37880 ft | 398 kts | 246° |
| 2026-05-06 11:04 | 43.61670 | 6.59675 | 37886 ft | 398 kts | 246° |
| 2026-05-06 11:05 | 43.59566 | 6.52614 | 37896 ft | 398 kts | 246° |
| 2026-05-06 11:05 | 43.57461 | 6.45565 | 37902 ft | 397 kts | 246° |
| 2026-05-06 11:06 | 43.55354 | 6.38529 | 37903 ft | 397 kts | 246° |
| 2026-05-06 11:06 | 43.53243 | 6.31498 | 37906 ft | 397 kts | 246° |
| 2026-05-06 11:07 | 43.51129 | 6.24473 | 37907 ft | 397 kts | 246° |
| 2026-05-06 11:07 | 43.49010 | 6.17452 | 37905 ft | 397 kts | 246° |
| 2026-05-06 11:08 | 43.46885 | 6.10432 | 37908 ft | 397 kts | 245° |
| 2026-05-06 11:08 | 43.44762 | 6.03435 | 37905 ft | 397 kts | 245° |
| 2026-05-06 11:09 | 43.42639 | 5.96459 | 37907 ft | 397 kts | 245° |
| 2026-05-06 11:09 | 43.40503 | 5.89458 | 37910 ft | 397 kts | 245° |
| 2026-05-06 11:10 | 43.38361 | 5.82457 | 37915 ft | 397 kts | 245° |
| 2026-05-06 11:10 | 43.36213 | 5.75454 | 37917 ft | 397 kts | 245° |
| 2026-05-06 11:11 | 43.34062 | 5.68460 | 37926 ft | 397 kts | 245° |
| 2026-05-06 11:11 | 43.31909 | 5.61483 | 37925 ft | 397 kts | 245° |
| 2026-05-06 11:12 | 43.29755 | 5.54515 | 37936 ft | 397 kts | 245° |
| 2026-05-06 11:12 | 43.27594 | 5.47544 | 37936 ft | 397 kts | 245° |
| 2026-05-06 11:13 | 43.25444 | 5.40631 | 37938 ft | 396 kts | 245° |
| 2026-05-06 11:13 | 43.23276 | 5.33677 | 37943 ft | 397 kts | 245° |
| 2026-05-06 11:14 | 43.21104 | 5.26722 | 37944 ft | 397 kts | 245° |
| 2026-05-06 11:14 | 43.18927 | 5.19774 | 37941 ft | 397 kts | 245° |
| 2026-05-06 11:15 | 43.16745 | 5.12830 | 37945 ft | 397 kts | 245° |
| 2026-05-06 11:15 | 43.14559 | 5.05893 | 37945 ft | 396 kts | 245° |
| 2026-05-06 11:16 | 43.12371 | 4.98965 | 37945 ft | 396 kts | 245° |
| 2026-05-06 11:16 | 43.10178 | 4.92043 | 37935 ft | 396 kts | 245° |
| 2026-05-06 11:17 | 43.07981 | 4.85124 | 37938 ft | 396 kts | 245° |
| 2026-05-06 11:17 | 43.05414 | 4.78481 | 37941 ft | 395 kts | 234° |
| 2026-05-06 11:18 | 43.01725 | 4.72938 | 37946 ft | 396 kts | 224° |
| 2026-05-06 11:18 | 42.97632 | 4.67898 | 37944 ft | 396 kts | 223° |
| 2026-05-06 11:19 | 42.93474 | 4.62958 | 37951 ft | 396 kts | 223° |
| 2026-05-06 11:19 | 42.89325 | 4.58010 | 37953 ft | 396 kts | 223° |
| 2026-05-06 11:20 | 42.85186 | 4.53045 | 37955 ft | 396 kts | 223° |
| 2026-05-06 11:20 | 42.81049 | 4.48076 | 37958 ft | 396 kts | 223° |
| 2026-05-06 11:21 | 42.76940 | 4.43148 | 37955 ft | 396 kts | 223° |
| 2026-05-06 11:21 | 42.72797 | 4.38191 | 37962 ft | 397 kts | 223° |
| 2026-05-06 11:22 | 42.68653 | 4.33242 | 37963 ft | 397 kts | 223° |
| 2026-05-06 11:22 | 42.64504 | 4.28297 | 37963 ft | 396 kts | 223° |
| 2026-05-06 11:23 | 42.60355 | 4.23362 | 37967 ft | 396 kts | 223° |
| 2026-05-06 11:23 | 42.56209 | 4.18438 | 37966 ft | 396 kts | 223° |
| 2026-05-06 11:24 | 42.52056 | 4.13516 | 37965 ft | 396 kts | 223° |
| 2026-05-06 11:24 | 42.47906 | 4.08607 | 37965 ft | 396 kts | 223° |
| 2026-05-06 11:25 | 42.44169 | 4.04077 | 38371 ft | 387 kts | 224° |
| 2026-05-06 11:25 | 42.42194 | 4.01673 | 38519 ft | 387 kts | 223° |
| 2026-05-06 11:25 | 42.40139 | 3.99265 | 38272 ft | 396 kts | 223° |
| 2026-05-06 11:25 | 42.38035 | 3.96835 | 38020 ft | 399 kts | 222° |
| 2026-05-06 11:26 | 42.35924 | 3.94405 | 37965 ft | 398 kts | 222° |
| 2026-05-06 11:26 | 42.31731 | 3.89545 | 37965 ft | 396 kts | 223° |
| 2026-05-06 11:27 | 42.27584 | 3.84660 | 37968 ft | 395 kts | 225° |
| 2026-05-06 11:27 | 42.24023 | 3.79040 | 38002 ft | 396 kts | 233° |
| 2026-05-06 11:28 | 42.20766 | 3.72984 | 37977 ft | 401 kts | 234° |
| 2026-05-06 11:28 | 42.17549 | 3.66824 | 37973 ft | 402 kts | 235° |
| 2026-05-06 11:29 | 42.14320 | 3.60664 | 37971 ft | 402 kts | 234° |
| 2026-05-06 11:29 | 42.11080 | 3.54531 | 37973 ft | 402 kts | 234° |
| 2026-05-06 11:30 | 42.07830 | 3.48407 | 37971 ft | 402 kts | 234° |
| 2026-05-06 11:30 | 42.04579 | 3.42294 | 37971 ft | 401 kts | 234° |
| 2026-05-06 11:31 | 42.01326 | 3.36191 | 37968 ft | 401 kts | 234° |
| 2026-05-06 11:31 | 41.98071 | 3.30092 | 37964 ft | 402 kts | 234° |
| 2026-05-06 11:32 | 41.94808 | 3.23993 | 37964 ft | 402 kts | 234° |
| 2026-05-06 11:32 | 41.91564 | 3.17939 | 37971 ft | 402 kts | 234° |
| 2026-05-06 11:33 | 41.88292 | 3.11847 | 37966 ft | 402 kts | 234° |
| 2026-05-06 11:33 | 41.85016 | 3.05759 | 37961 ft | 402 kts | 234° |
| 2026-05-06 11:34 | 41.81740 | 2.99683 | 37961 ft | 402 kts | 234° |
| 2026-05-06 11:34 | 41.78457 | 2.93607 | 37965 ft | 402 kts | 234° |
| 2026-05-06 11:35 | 41.75168 | 2.87532 | 37963 ft | 403 kts | 234° |
| 2026-05-06 11:35 | 41.71876 | 2.81462 | 37962 ft | 402 kts | 234° |
| 2026-05-06 11:36 | 41.68577 | 2.75403 | 37962 ft | 403 kts | 234° |
| 2026-05-06 11:36 | 41.65178 | 2.69441 | 37960 ft | 403 kts | 233° |
| 2026-05-06 11:37 | 41.61746 | 2.63580 | 37959 ft | 403 kts | 232° |
| 2026-05-06 11:37 | 41.58290 | 2.57687 | 37954 ft | 403 kts | 232° |
| 2026-05-06 11:38 | 41.54838 | 2.51788 | 37956 ft | 403 kts | 233° |
| 2026-05-06 11:38 | 41.51388 | 2.45892 | 37967 ft | 403 kts | 233° |
| 2026-05-06 11:39 | 41.47936 | 2.40003 | 37961 ft | 403 kts | 233° |
| 2026-05-06 11:39 | 41.44484 | 2.34125 | 37961 ft | 403 kts | 233° |
| 2026-05-06 11:40 | 41.41027 | 2.28251 | 37962 ft | 403 kts | 233° |
| 2026-05-06 11:40 | 41.37568 | 2.22385 | 37966 ft | 403 kts | 233° |
| 2026-05-06 11:41 | 41.34664 | 2.17469 | 37967 ft | 403 kts | 233° |
| 2026-05-06 11:41 | 41.31220 | 2.11654 | 37968 ft | 403 kts | 232° |
| 2026-05-06 11:42 | 41.27576 | 2.05983 | 37965 ft | 403 kts | 230° |
| 2026-05-06 11:42 | 41.23811 | 2.00465 | 37964 ft | 403 kts | 229° |
| 2026-05-06 11:43 | 41.20036 | 1.94952 | 37965 ft | 403 kts | 229° |
| 2026-05-06 11:43 | 41.16284 | 1.89438 | 37966 ft | 403 kts | 229° |
| 2026-05-06 11:44 | 41.10661 | 1.81154 | 37962 ft | 403 kts | 230° |
| 2026-05-06 11:44 | 41.06911 | 1.75641 | 37968 ft | 403 kts | 230° |
| 2026-05-06 11:45 | 41.03157 | 1.70132 | 37964 ft | 403 kts | 230° |
| 2026-05-06 11:45 | 40.99398 | 1.64625 | 37970 ft | 403 kts | 230° |
| 2026-05-06 11:46 | 40.95638 | 1.59129 | 37968 ft | 403 kts | 230° |
| 2026-05-06 11:46 | 40.91878 | 1.53642 | 37968 ft | 403 kts | 230° |
| 2026-05-06 11:47 | 40.88115 | 1.48160 | 37968 ft | 403 kts | 230° |
| 2026-05-06 11:47 | 40.84374 | 1.42721 | 37968 ft | 403 kts | 230° |
| 2026-05-06 11:48 | 40.80603 | 1.37253 | 37968 ft | 402 kts | 230° |
| 2026-05-06 11:48 | 40.76831 | 1.31793 | 37965 ft | 402 kts | 230° |
| 2026-05-06 11:49 | 40.73060 | 1.26345 | 37965 ft | 402 kts | 230° |
| 2026-05-06 11:49 | 40.69287 | 1.20901 | 37966 ft | 402 kts | 230° |
| 2026-05-06 11:50 | 40.65517 | 1.15465 | 37968 ft | 402 kts | 230° |
| 2026-05-06 11:50 | 40.61744 | 1.10034 | 37966 ft | 402 kts | 230° |
| 2026-05-06 11:51 | 40.57969 | 1.04610 | 37970 ft | 402 kts | 230° |
| 2026-05-06 11:51 | 40.54217 | 0.99230 | 37967 ft | 402 kts | 230° |
| 2026-05-06 11:52 | 40.50436 | 0.93824 | 37960 ft | 402 kts | 230° |
| 2026-05-06 11:52 | 40.46652 | 0.88425 | 37960 ft | 402 kts | 230° |
| 2026-05-06 11:53 | 40.42865 | 0.83031 | 37962 ft | 401 kts | 230° |
| 2026-05-06 11:53 | 40.39079 | 0.77648 | 37965 ft | 401 kts | 230° |
| 2026-05-06 11:54 | 40.35288 | 0.72268 | 37965 ft | 402 kts | 230° |
| 2026-05-06 11:54 | 40.31495 | 0.66892 | 37966 ft | 402 kts | 230° |
| 2026-05-06 11:55 | 40.27697 | 0.61520 | 37963 ft | 402 kts | 230° |
| 2026-05-06 11:55 | 40.23898 | 0.56158 | 37965 ft | 402 kts | 230° |
| 2026-05-06 11:56 | 40.20095 | 0.50801 | 37965 ft | 402 kts | 230° |
| 2026-05-06 11:56 | 40.16292 | 0.45455 | 37964 ft | 402 kts | 230° |
| 2026-05-06 11:57 | 40.12484 | 0.40109 | 37965 ft | 401 kts | 230° |
| 2026-05-06 11:57 | 40.08676 | 0.34774 | 37964 ft | 401 kts | 230° |
| 2026-05-06 11:58 | 40.04865 | 0.29444 | 37966 ft | 401 kts | 229° |
| 2026-05-06 11:58 | 40.01055 | 0.24124 | 37965 ft | 401 kts | 229° |
| 2026-05-06 11:59 | 39.97266 | 0.18839 | 37967 ft | 401 kts | 229° |
| 2026-05-06 11:59 | 39.93456 | 0.13530 | 37964 ft | 401 kts | 229° |
| 2026-05-06 12:00 | 39.89643 | 0.08227 | 37969 ft | 401 kts | 229° |
| 2026-05-06 12:00 | 39.85827 | 0.02929 | 37965 ft | 401 kts | 229° |
| 2026-05-06 12:01 | 39.82012 | -0.02358 | 37963 ft | 400 kts | 229° |
| 2026-05-06 12:01 | 39.78197 | -0.07633 | 37966 ft | 400 kts | 229° |
| 2026-05-06 12:02 | 39.74376 | -0.12906 | 37965 ft | 400 kts | 229° |
| 2026-05-06 12:02 | 39.70558 | -0.18167 | 37962 ft | 400 kts | 229° |
| 2026-05-06 12:03 | 39.66737 | -0.23422 | 37961 ft | 400 kts | 229° |
| 2026-05-06 12:03 | 39.62912 | -0.28674 | 37953 ft | 400 kts | 229° |
| 2026-05-06 12:04 | 39.59090 | -0.33914 | 37962 ft | 400 kts | 229° |
| 2026-05-06 12:04 | 39.55262 | -0.39151 | 37959 ft | 400 kts | 229° |
| 2026-05-06 12:05 | 39.51436 | -0.44378 | 37962 ft | 400 kts | 229° |
| 2026-05-06 12:05 | 39.47760 | -0.49759 | 37965 ft | 398 kts | 234° |
| 2026-05-06 12:06 | 39.44368 | -0.55422 | 37971 ft | 398 kts | 234° |
| 2026-05-06 12:06 | 39.41025 | -0.61138 | 37964 ft | 398 kts | 235° |
| 2026-05-06 12:07 | 39.37688 | -0.66850 | 37957 ft | 398 kts | 235° |
| 2026-05-06 12:07 | 39.34361 | -0.72517 | 37954 ft | 398 kts | 235° |
| 2026-05-06 12:08 | 39.31009 | -0.78208 | 37951 ft | 398 kts | 234° |
| 2026-05-06 12:08 | 39.27655 | -0.83890 | 37965 ft | 398 kts | 234° |
| 2026-05-06 12:09 | 39.24297 | -0.89566 | 37959 ft | 398 kts | 234° |
| 2026-05-06 12:09 | 39.20934 | -0.95244 | 37962 ft | 398 kts | 234° |
| 2026-05-06 12:10 | 39.17571 | -1.00912 | 37961 ft | 398 kts | 234° |
| 2026-05-06 12:10 | 39.14207 | -1.06572 | 37953 ft | 398 kts | 234° |
| 2026-05-06 12:11 | 39.10842 | -1.12222 | 37965 ft | 398 kts | 234° |
| 2026-05-06 12:11 | 39.07472 | -1.17864 | 37954 ft | 397 kts | 236° |
| 2026-05-06 12:12 | 39.04099 | -1.23494 | 37962 ft | 397 kts | 234° |
| 2026-05-06 12:12 | 39.00732 | -1.29133 | 37958 ft | 397 kts | 234° |
| 2026-05-06 12:13 | 38.97364 | -1.34759 | 37953 ft | 397 kts | 234° |
| 2026-05-06 12:13 | 38.94009 | -1.40346 | 37961 ft | 397 kts | 234° |
| 2026-05-06 12:14 | 38.90628 | -1.45963 | 37964 ft | 397 kts | 234° |
| 2026-05-06 12:14 | 38.87249 | -1.51568 | 37961 ft | 397 kts | 234° |
| 2026-05-06 12:15 | 38.83871 | -1.57161 | 37964 ft | 397 kts | 234° |
| 2026-05-06 12:15 | 38.80489 | -1.62751 | 37967 ft | 396 kts | 234° |
| 2026-05-06 12:16 | 38.77108 | -1.68330 | 37967 ft | 396 kts | 234° |
| 2026-05-06 12:16 | 38.73728 | -1.73899 | 37961 ft | 396 kts | 234° |
| 2026-05-06 12:17 | 38.70344 | -1.79463 | 37963 ft | 396 kts | 234° |
| 2026-05-06 12:17 | 38.66956 | -1.85023 | 37966 ft | 396 kts | 234° |
| 2026-05-06 12:18 | 38.63587 | -1.90540 | 37969 ft | 396 kts | 234° |
| 2026-05-06 12:18 | 38.60192 | -1.96092 | 37960 ft | 396 kts | 234° |
| 2026-05-06 12:19 | 38.56794 | -2.01638 | 37959 ft | 397 kts | 234° |
| 2026-05-06 12:19 | 38.53389 | -2.07187 | 37959 ft | 397 kts | 234° |
| 2026-05-06 12:20 | 38.49982 | -2.12731 | 37957 ft | 397 kts | 234° |
| 2026-05-06 12:20 | 38.46574 | -2.18269 | 37953 ft | 397 kts | 234° |
| 2026-05-06 12:21 | 38.43164 | -2.23802 | 37952 ft | 397 kts | 233° |
| 2026-05-06 12:21 | 38.39748 | -2.29334 | 37952 ft | 397 kts | 234° |
| 2026-05-06 12:22 | 38.36300 | -2.34827 | 37945 ft | 398 kts | 230° |
| 2026-05-06 12:22 | 38.32558 | -2.40027 | 37945 ft | 398 kts | 229° |
| 2026-05-06 12:23 | 38.28747 | -2.45159 | 37941 ft | 399 kts | 229° |
| 2026-05-06 12:23 | 38.24918 | -2.50275 | 37941 ft | 399 kts | 229° |
| 2026-05-06 12:24 | 38.21119 | -2.55350 | 37932 ft | 399 kts | 229° |
| 2026-05-06 12:24 | 38.17298 | -2.60456 | 37939 ft | 399 kts | 229° |
| 2026-05-06 12:25 | 38.13473 | -2.65565 | 37937 ft | 399 kts | 229° |
| 2026-05-06 12:25 | 38.09644 | -2.70667 | 37930 ft | 399 kts | 229° |
| 2026-05-06 12:26 | 38.05807 | -2.75772 | 37927 ft | 399 kts | 229° |
| 2026-05-06 12:26 | 38.01972 | -2.80867 | 37923 ft | 399 kts | 229° |
| 2026-05-06 12:27 | 37.98140 | -2.85950 | 37920 ft | 399 kts | 229° |
| 2026-05-06 12:27 | 37.94303 | -2.91031 | 37934 ft | 400 kts | 229° |
| 2026-05-06 12:28 | 37.91101 | -2.95263 | 37916 ft | 399 kts | 229° |
| 2026-05-06 12:28 | 37.87262 | -3.00330 | 37930 ft | 399 kts | 229° |
| 2026-05-06 12:29 | 37.83418 | -3.05397 | 37911 ft | 399 kts | 229° |
| 2026-05-06 12:29 | 37.78943 | -3.11284 | 37915 ft | 399 kts | 229° |
| 2026-05-06 12:30 | 37.75741 | -3.15493 | 37916 ft | 399 kts | 229° |
| 2026-05-06 12:30 | 37.71894 | -3.20540 | 37906 ft | 399 kts | 229° |
| 2026-05-06 12:31 | 37.68044 | -3.25584 | 37907 ft | 399 kts | 229° |
| 2026-05-06 12:31 | 37.64188 | -3.30624 | 37909 ft | 399 kts | 229° |
| 2026-05-06 12:32 | 37.60327 | -3.35665 | 37905 ft | 399 kts | 229° |
| 2026-05-06 12:32 | 37.56469 | -3.40694 | 37905 ft | 399 kts | 229° |
| 2026-05-06 12:33 | 37.52612 | -3.45713 | 37910 ft | 399 kts | 229° |
| 2026-05-06 12:33 | 37.48752 | -3.50728 | 37899 ft | 399 kts | 228° |
| 2026-05-06 12:34 | 37.44913 | -3.55708 | 37910 ft | 399 kts | 229° |
| 2026-05-06 12:34 | 37.41048 | -3.60713 | 37919 ft | 399 kts | 228° |
| 2026-05-06 12:35 | 37.37181 | -3.65715 | 37921 ft | 399 kts | 228° |
| 2026-05-06 12:35 | 37.33310 | -3.70714 | 37925 ft | 399 kts | 228° |
| 2026-05-06 12:36 | 37.29439 | -3.75703 | 37936 ft | 399 kts | 228° |
| 2026-05-06 12:36 | 37.25569 | -3.80684 | 37938 ft | 398 kts | 228° |
| 2026-05-06 12:37 | 37.21700 | -3.85656 | 37936 ft | 398 kts | 228° |
| 2026-05-06 12:37 | 37.17821 | -3.90632 | 37936 ft | 399 kts | 228° |
| 2026-05-06 12:38 | 37.13944 | -3.95598 | 37932 ft | 399 kts | 228° |
| 2026-05-06 12:38 | 37.10064 | -4.00562 | 37927 ft | 398 kts | 228° |
| 2026-05-06 12:39 | 37.06184 | -4.05516 | 37905 ft | 398 kts | 228° |
| 2026-05-06 12:39 | 37.02301 | -4.10467 | 37912 ft | 399 kts | 228° |
| 2026-05-06 12:40 | 36.98414 | -4.15416 | 37899 ft | 398 kts | 228° |
| 2026-05-06 12:40 | 36.94531 | -4.20353 | 37904 ft | 399 kts | 228° |
| 2026-05-06 12:41 | 36.90643 | -4.25288 | 37904 ft | 398 kts | 228° |